Aviation Digital Data Service (ADDS)

Output produced by METARs form (0640 UTC 27 March 2017)
found at http://www.aviationweather.gov/adds/metars/
 
BKPR 270630Z 35006KT 9999 FEW080 03/M03 Q1022 NOSIG
TAF BKPR 270530Z 2706/2806 02006KT 9999 SCT070